sensor_id;sensor_type;location;lat;lon;timestamp;P1;durP1;ratioP1;P2;durP2;ratioP2
12784;SDS011;6456;42.680;23.260;2023-04-04T00:00:23;7.23;;;3.37;;
12784;SDS011;6456;42.680;23.260;2023-04-04T00:02:50;9.00;;;3.17;;
12784;SDS011;6456;42.680;23.260;2023-04-04T00:05:17;6.33;;;3.23;;
12784;SDS011;6456;42.680;23.260;2023-04-04T00:07:46;8.50;;;3.27;;
12784;SDS011;6456;42.680;23.260;2023-04-04T00:10:13;5.53;;;3.00;;
12784;SDS011;6456;42.680;23.260;2023-04-04T00:12:40;4.87;;;2.90;;
12784;SDS011;6456;42.680;23.260;2023-04-04T00:15:07;5.07;;;2.87;;
12784;SDS011;6456;42.680;23.260;2023-04-04T00:17:35;7.43;;;3.43;;
12784;SDS011;6456;42.680;23.260;2023-04-04T00:20:02;4.30;;;2.87;;
12784;SDS011;6456;42.680;23.260;2023-04-04T00:22:30;4.20;;;2.57;;
12784;SDS011;6456;42.680;23.260;2023-04-04T00:24:58;2.93;;;2.50;;
12784;SDS011;6456;42.680;23.260;2023-04-04T00:27:25;3.53;;;2.80;;
12784;SDS011;6456;42.680;23.260;2023-04-04T00:29:52;4.23;;;3.10;;
12784;SDS011;6456;42.680;23.260;2023-04-04T00:32:19;4.50;;;3.67;;
12784;SDS011;6456;42.680;23.260;2023-04-04T00:34:50;6.27;;;3.83;;
12784;SDS011;6456;42.680;23.260;2023-04-04T00:37:17;5.40;;;4.10;;
12784;SDS011;6456;42.680;23.260;2023-04-04T00:39:47;7.70;;;4.77;;
12784;SDS011;6456;42.680;23.260;2023-04-04T00:42:16;6.30;;;5.03;;
12784;SDS011;6456;42.680;23.260;2023-04-04T00:44:42;5.57;;;4.60;;
12784;SDS011;6456;42.680;23.260;2023-04-04T00:47:10;7.07;;;4.87;;
12784;SDS011;6456;42.680;23.260;2023-04-04T00:49:36;4.90;;;3.87;;
12784;SDS011;6456;42.680;23.260;2023-04-04T00:52:03;4.73;;;4.00;;
12784;SDS011;6456;42.680;23.260;2023-04-04T00:54:31;3.50;;;3.20;;
12784;SDS011;6456;42.680;23.260;2023-04-04T00:56:59;3.43;;;2.70;;
12784;SDS011;6456;42.680;23.260;2023-04-04T00:59:28;2.80;;;2.60;;
12784;SDS011;6456;42.680;23.260;2023-04-04T01:01:56;3.00;;;2.80;;
12784;SDS011;6456;42.680;23.260;2023-04-04T01:04:24;3.07;;;2.87;;
12784;SDS011;6456;42.680;23.260;2023-04-04T01:06:52;2.77;;;2.63;;
12784;SDS011;6456;42.680;23.260;2023-04-04T01:09:19;3.20;;;3.00;;
12784;SDS011;6456;42.680;23.260;2023-04-04T01:11:47;3.33;;;3.03;;
12784;SDS011;6456;42.680;23.260;2023-04-04T01:14:14;4.90;;;3.23;;
12784;SDS011;6456;42.680;23.260;2023-04-04T01:16:42;3.20;;;3.00;;
12784;SDS011;6456;42.680;23.260;2023-04-04T01:19:12;3.80;;;3.50;;
12784;SDS011;6456;42.680;23.260;2023-04-04T01:21:43;3.40;;;3.10;;
12784;SDS011;6456;42.680;23.260;2023-04-04T01:24:11;3.37;;;3.07;;
12784;SDS011;6456;42.680;23.260;2023-04-04T01:26:43;3.80;;;3.50;;
12784;SDS011;6456;42.680;23.260;2023-04-04T01:29:10;3.80;;;3.50;;
12784;SDS011;6456;42.680;23.260;2023-04-04T01:31:38;4.50;;;3.30;;
12784;SDS011;6456;42.680;23.260;2023-04-04T01:34:08;4.80;;;4.20;;
12784;SDS011;6456;42.680;23.260;2023-04-04T01:36:54;3.90;;;3.60;;
12784;SDS011;6456;42.680;23.260;2023-04-04T01:39:26;3.87;;;3.57;;
12784;SDS011;6456;42.680;23.260;2023-04-04T01:41:59;4.50;;;3.60;;
12784;SDS011;6456;42.680;23.260;2023-04-04T01:44:29;3.60;;;3.30;;
12784;SDS011;6456;42.680;23.260;2023-04-04T01:46:56;3.57;;;3.27;;
12784;SDS011;6456;42.680;23.260;2023-04-04T01:49:23;3.20;;;2.93;;
12784;SDS011;6456;42.680;23.260;2023-04-04T01:51:50;3.50;;;3.20;;
12784;SDS011;6456;42.680;23.260;2023-04-04T01:54:19;3.40;;;3.17;;
12784;SDS011;6456;42.680;23.260;2023-04-04T01:56:46;3.23;;;3.00;;
12784;SDS011;6456;42.680;23.260;2023-04-04T01:59:15;2.67;;;2.47;;
12784;SDS011;6456;42.680;23.260;2023-04-04T02:01:42;2.97;;;2.77;;
12784;SDS011;6456;42.680;23.260;2023-04-04T02:04:08;2.93;;;2.73;;
12784;SDS011;6456;42.680;23.260;2023-04-04T02:06:36;3.27;;;2.90;;
12784;SDS011;6456;42.680;23.260;2023-04-04T02:09:03;2.83;;;2.63;;
12784;SDS011;6456;42.680;23.260;2023-04-04T02:11:31;2.87;;;2.67;;
12784;SDS011;6456;42.680;23.260;2023-04-04T02:13:58;2.23;;;2.00;;
12784;SDS011;6456;42.680;23.260;2023-04-04T02:16:26;2.00;;;1.63;;
12784;SDS011;6456;42.680;23.260;2023-04-04T02:18:53;1.70;;;1.60;;
12784;SDS011;6456;42.680;23.260;2023-04-04T02:21:20;3.17;;;1.87;;
12784;SDS011;6456;42.680;23.260;2023-04-04T02:23:49;1.60;;;1.50;;
12784;SDS011;6456;42.680;23.260;2023-04-04T02:26:18;1.63;;;1.53;;
12784;SDS011;6456;42.680;23.260;2023-04-04T02:28:45;1.67;;;1.57;;
12784;SDS011;6456;42.680;23.260;2023-04-04T02:31:12;1.37;;;1.37;;
12784;SDS011;6456;42.680;23.260;2023-04-04T02:33:40;1.40;;;1.37;;
12784;SDS011;6456;42.680;23.260;2023-04-04T02:36:07;1.80;;;1.70;;
12784;SDS011;6456;42.680;23.260;2023-04-04T02:38:34;1.90;;;1.80;;
12784;SDS011;6456;42.680;23.260;2023-04-04T02:41:01;1.60;;;1.50;;
12784;SDS011;6456;42.680;23.260;2023-04-04T02:43:28;1.60;;;1.50;;
12784;SDS011;6456;42.680;23.260;2023-04-04T02:45:55;2.20;;;1.60;;
12784;SDS011;6456;42.680;23.260;2023-04-04T02:48:21;2.13;;;2.00;;
12784;SDS011;6456;42.680;23.260;2023-04-04T02:50:50;1.80;;;1.70;;
12784;SDS011;6456;42.680;23.260;2023-04-04T02:53:17;1.80;;;1.70;;
12784;SDS011;6456;42.680;23.260;2023-04-04T02:55:44;1.77;;;1.67;;
12784;SDS011;6456;42.680;23.260;2023-04-04T02:58:11;1.23;;;1.23;;
12784;SDS011;6456;42.680;23.260;2023-04-04T03:00:38;1.50;;;1.40;;
12784;SDS011;6456;42.680;23.260;2023-04-04T03:03:05;1.73;;;1.50;;
12784;SDS011;6456;42.680;23.260;2023-04-04T03:05:32;1.57;;;1.50;;
12784;SDS011;6456;42.680;23.260;2023-04-04T03:08:00;1.43;;;1.33;;
12784;SDS011;6456;42.680;23.260;2023-04-04T03:10:28;1.30;;;1.30;;
12784;SDS011;6456;42.680;23.260;2023-04-04T03:12:55;1.10;;;1.10;;
12784;SDS011;6456;42.680;23.260;2023-04-04T03:15:23;1.40;;;1.30;;
12784;SDS011;6456;42.680;23.260;2023-04-04T03:17:51;3.27;;;1.30;;
12784;SDS011;6456;42.680;23.260;2023-04-04T03:20:18;1.37;;;1.30;;
12784;SDS011;6456;42.680;23.260;2023-04-04T03:22:48;1.67;;;1.50;;
12784;SDS011;6456;42.680;23.260;2023-04-04T03:25:16;2.00;;;1.57;;
12784;SDS011;6456;42.680;23.260;2023-04-04T03:27:43;1.70;;;1.60;;
12784;SDS011;6456;42.680;23.260;2023-04-04T03:30:10;1.90;;;1.80;;
12784;SDS011;6456;42.680;23.260;2023-04-04T03:32:37;2.30;;;2.10;;
12784;SDS011;6456;42.680;23.260;2023-04-04T03:35:05;2.30;;;2.10;;
12784;SDS011;6456;42.680;23.260;2023-04-04T03:37:32;2.30;;;2.10;;
12784;SDS011;6456;42.680;23.260;2023-04-04T03:39:59;1.80;;;1.50;;
12784;SDS011;6456;42.680;23.260;2023-04-04T03:42:28;2.10;;;2.00;;
12784;SDS011;6456;42.680;23.260;2023-04-04T03:47:31;2.87;;;2.67;;
12784;SDS011;6456;42.680;23.260;2023-04-04T03:49:58;2.37;;;2.23;;
12784;SDS011;6456;42.680;23.260;2023-04-04T03:52:25;2.83;;;2.63;;
12784;SDS011;6456;42.680;23.260;2023-04-04T03:54:52;3.60;;;2.70;;
12784;SDS011;6456;42.680;23.260;2023-04-04T03:57:19;3.40;;;2.90;;
12784;SDS011;6456;42.680;23.260;2023-04-04T03:59:47;3.87;;;3.47;;
12784;SDS011;6456;42.680;23.260;2023-04-04T04:02:14;4.23;;;3.63;;
12784;SDS011;6456;42.680;23.260;2023-04-04T04:04:41;6.80;;;6.20;;
12784;SDS011;6456;42.680;23.260;2023-04-04T04:07:08;11.23;;;9.47;;
12784;SDS011;6456;42.680;23.260;2023-04-04T04:09:35;7.50;;;5.53;;
12784;SDS011;6456;42.680;23.260;2023-04-04T04:12:02;8.27;;;7.47;;
12784;SDS011;6456;42.680;23.260;2023-04-04T04:14:29;6.17;;;5.50;;
12784;SDS011;6456;42.680;23.260;2023-04-04T04:16:58;6.43;;;5.80;;
12784;SDS011;6456;42.680;23.260;2023-04-04T04:19:25;7.30;;;5.73;;
12784;SDS011;6456;42.680;23.260;2023-04-04T04:21:52;7.63;;;5.70;;
12784;SDS011;6456;42.680;23.260;2023-04-04T04:24:19;5.63;;;5.07;;
12784;SDS011;6456;42.680;23.260;2023-04-04T04:26:46;6.00;;;4.67;;
12784;SDS011;6456;42.680;23.260;2023-04-04T04:29:13;5.77;;;4.63;;
12784;SDS011;6456;42.680;23.260;2023-04-04T04:31:40;5.63;;;5.10;;
12784;SDS011;6456;42.680;23.260;2023-04-04T04:34:08;5.60;;;5.07;;
12784;SDS011;6456;42.680;23.260;2023-04-04T04:36:35;6.20;;;4.87;;
12784;SDS011;6456;42.680;23.260;2023-04-04T04:39:02;5.17;;;4.67;;
12784;SDS011;6456;42.680;23.260;2023-04-04T04:41:29;6.40;;;5.70;;
12784;SDS011;6456;42.680;23.260;2023-04-04T04:43:56;6.10;;;5.33;;
12784;SDS011;6456;42.680;23.260;2023-04-04T04:46:23;5.13;;;4.63;;
12784;SDS011;6456;42.680;23.260;2023-04-04T04:48:50;6.93;;;5.43;;
12784;SDS011;6456;42.680;23.260;2023-04-04T04:51:18;5.93;;;5.10;;
12784;SDS011;6456;42.680;23.260;2023-04-04T04:53:45;6.00;;;5.40;;
12784;SDS011;6456;42.680;23.260;2023-04-04T04:56:12;6.90;;;5.60;;
12784;SDS011;6456;42.680;23.260;2023-04-04T04:58:38;7.20;;;6.03;;
12784;SDS011;6456;42.680;23.260;2023-04-04T05:01:05;7.63;;;5.97;;
12784;SDS011;6456;42.680;23.260;2023-04-04T05:03:32;7.80;;;6.13;;
12784;SDS011;6456;42.680;23.260;2023-04-04T05:06:00;7.27;;;6.27;;
12784;SDS011;6456;42.680;23.260;2023-04-04T05:08:28;7.93;;;7.13;;
12784;SDS011;6456;42.680;23.260;2023-04-04T05:10:55;8.87;;;6.67;;
12784;SDS011;6456;42.680;23.260;2023-04-04T05:13:22;10.50;;;6.90;;
12784;SDS011;6456;42.680;23.260;2023-04-04T05:15:49;8.50;;;6.77;;
12784;SDS011;6456;42.680;23.260;2023-04-04T05:18:16;9.13;;;7.00;;
12784;SDS011;6456;42.680;23.260;2023-04-04T05:20:43;8.77;;;7.47;;
12784;SDS011;6456;42.680;23.260;2023-04-04T05:23:16;7.43;;;6.73;;
12784;SDS011;6456;42.680;23.260;2023-04-04T05:25:44;8.70;;;7.80;;
12784;SDS011;6456;42.680;23.260;2023-04-04T05:28:11;7.73;;;6.30;;
12784;SDS011;6456;42.680;23.260;2023-04-04T05:30:37;7.97;;;6.40;;
12784;SDS011;6456;42.680;23.260;2023-04-04T05:33:05;7.97;;;6.90;;
12784;SDS011;6456;42.680;23.260;2023-04-04T05:35:32;6.67;;;6.07;;
12784;SDS011;6456;42.680;23.260;2023-04-04T05:37:59;7.10;;;6.40;;
12784;SDS011;6456;42.680;23.260;2023-04-04T05:40:25;7.53;;;5.77;;
12784;SDS011;6456;42.680;23.260;2023-04-04T05:42:54;6.17;;;5.57;;
12784;SDS011;6456;42.680;23.260;2023-04-04T05:45:21;7.37;;;6.03;;
12784;SDS011;6456;42.680;23.260;2023-04-04T05:47:48;8.97;;;7.37;;
12784;SDS011;6456;42.680;23.260;2023-04-04T05:50:15;6.87;;;6.17;;
12784;SDS011;6456;42.680;23.260;2023-04-04T05:52:42;7.03;;;6.37;;
12784;SDS011;6456;42.680;23.260;2023-04-04T05:55:09;6.27;;;5.50;;
12784;SDS011;6456;42.680;23.260;2023-04-04T05:57:36;7.43;;;6.03;;
12784;SDS011;6456;42.680;23.260;2023-04-04T06:00:05;9.10;;;6.50;;
12784;SDS011;6456;42.680;23.260;2023-04-04T06:02:33;9.23;;;7.23;;
12784;SDS011;6456;42.680;23.260;2023-04-04T06:05:01;8.23;;;7.47;;
12784;SDS011;6456;42.680;23.260;2023-04-04T06:07:27;8.13;;;7.03;;
12784;SDS011;6456;42.680;23.260;2023-04-04T06:09:54;8.50;;;7.57;;
12784;SDS011;6456;42.680;23.260;2023-04-04T06:12:21;8.30;;;7.50;;
12784;SDS011;6456;42.680;23.260;2023-04-04T06:14:48;8.90;;;7.03;;
12784;SDS011;6456;42.680;23.260;2023-04-04T06:17:16;7.80;;;7.03;;
12784;SDS011;6456;42.680;23.260;2023-04-04T06:19:43;8.03;;;6.73;;
12784;SDS011;6456;42.680;23.260;2023-04-04T06:22:10;7.40;;;6.40;;
12784;SDS011;6456;42.680;23.260;2023-04-04T06:24:37;6.40;;;5.80;;
12784;SDS011;6456;42.680;23.260;2023-04-04T06:27:04;3.30;;;2.97;;
12784;SDS011;6456;42.680;23.260;2023-04-04T06:29:30;1.73;;;1.63;;
12784;SDS011;6456;42.680;23.260;2023-04-04T06:31:58;1.70;;;1.60;;
12784;SDS011;6456;42.680;23.260;2023-04-04T06:34:26;1.30;;;1.30;;
12784;SDS011;6456;42.680;23.260;2023-04-04T06:36:53;1.50;;;1.30;;
12784;SDS011;6456;42.680;23.260;2023-04-04T06:39:20;1.20;;;1.20;;
12784;SDS011;6456;42.680;23.260;2023-04-04T06:41:47;1.10;;;1.10;;
12784;SDS011;6456;42.680;23.260;2023-04-04T06:44:13;0.80;;;0.80;;
12784;SDS011;6456;42.680;23.260;2023-04-04T06:46:40;0.70;;;0.70;;
12784;SDS011;6456;42.680;23.260;2023-04-04T06:49:07;1.53;;;1.00;;
12784;SDS011;6456;42.680;23.260;2023-04-04T06:51:36;0.63;;;0.63;;
12784;SDS011;6456;42.680;23.260;2023-04-04T06:54:03;0.50;;;0.50;;
12784;SDS011;6456;42.680;23.260;2023-04-04T06:56:30;0.70;;;0.70;;
12784;SDS011;6456;42.680;23.260;2023-04-04T06:58:57;0.83;;;0.70;;
12784;SDS011;6456;42.680;23.260;2023-04-04T07:01:23;0.40;;;0.40;;
12784;SDS011;6456;42.680;23.260;2023-04-04T07:03:51;0.70;;;0.70;;
12784;SDS011;6456;42.680;23.260;2023-04-04T07:06:20;0.50;;;0.50;;
12784;SDS011;6456;42.680;23.260;2023-04-04T07:08:49;3.30;;;0.53;;
12784;SDS011;6456;42.680;23.260;2023-04-04T07:11:16;0.70;;;0.70;;
12784;SDS011;6456;42.680;23.260;2023-04-04T07:13:43;0.50;;;0.50;;
12784;SDS011;6456;42.680;23.260;2023-04-04T07:16:09;0.60;;;0.57;;
12784;SDS011;6456;42.680;23.260;2023-04-04T07:18:37;0.37;;;0.37;;
12784;SDS011;6456;42.680;23.260;2023-04-04T07:21:04;1.23;;;0.60;;
12784;SDS011;6456;42.680;23.260;2023-04-04T07:23:30;0.70;;;0.70;;
12784;SDS011;6456;42.680;23.260;2023-04-04T07:25:59;0.47;;;0.47;;
12784;SDS011;6456;42.680;23.260;2023-04-04T07:28:26;0.47;;;0.47;;
12784;SDS011;6456;42.680;23.260;2023-04-04T07:30:53;0.40;;;0.40;;
12784;SDS011;6456;42.680;23.260;2023-04-04T07:33:20;0.40;;;0.40;;
12784;SDS011;6456;42.680;23.260;2023-04-04T07:35:47;0.83;;;0.60;;
12784;SDS011;6456;42.680;23.260;2023-04-04T07:38:13;0.40;;;0.40;;
12784;SDS011;6456;42.680;23.260;2023-04-04T07:40:40;0.40;;;0.40;;
12784;SDS011;6456;42.680;23.260;2023-04-04T07:43:09;0.30;;;0.30;;
12784;SDS011;6456;42.680;23.260;2023-04-04T07:45:36;1.23;;;0.60;;
12784;SDS011;6456;42.680;23.260;2023-04-04T07:48:03;0.77;;;0.50;;
12784;SDS011;6456;42.680;23.260;2023-04-04T07:50:30;0.60;;;0.60;;
12784;SDS011;6456;42.680;23.260;2023-04-04T07:52:56;0.43;;;0.43;;
12784;SDS011;6456;42.680;23.260;2023-04-04T07:55:23;0.30;;;0.30;;
12784;SDS011;6456;42.680;23.260;2023-04-04T07:57:50;0.50;;;0.50;;
12784;SDS011;6456;42.680;23.260;2023-04-04T08:00:19;0.60;;;0.60;;
12784;SDS011;6456;42.680;23.260;2023-04-04T08:02:53;0.80;;;0.80;;
12784;SDS011;6456;42.680;23.260;2023-04-04T08:05:22;0.87;;;0.87;;
12784;SDS011;6456;42.680;23.260;2023-04-04T08:07:50;3.10;;;0.90;;
12784;SDS011;6456;42.680;23.260;2023-04-04T08:10:16;1.10;;;1.00;;
12784;SDS011;6456;42.680;23.260;2023-04-04T08:12:45;0.80;;;0.80;;
12784;SDS011;6456;42.680;23.260;2023-04-04T08:15:15;0.53;;;0.53;;
12784;SDS011;6456;42.680;23.260;2023-04-04T08:17:43;1.10;;;1.00;;
12784;SDS011;6456;42.680;23.260;2023-04-04T08:20:11;1.43;;;0.90;;
12784;SDS011;6456;42.680;23.260;2023-04-04T08:22:38;0.80;;;0.80;;
12784;SDS011;6456;42.680;23.260;2023-04-04T08:25:06;1.60;;;0.83;;
12784;SDS011;6456;42.680;23.260;2023-04-04T08:27:34;0.80;;;0.80;;
12784;SDS011;6456;42.680;23.260;2023-04-04T08:30:01;4.33;;;0.70;;
12784;SDS011;6456;42.680;23.260;2023-04-04T08:32:29;0.87;;;0.87;;
12784;SDS011;6456;42.680;23.260;2023-04-04T08:34:57;1.20;;;1.10;;
12784;SDS011;6456;42.680;23.260;2023-04-04T08:37:24;1.30;;;1.00;;
12784;SDS011;6456;42.680;23.260;2023-04-04T08:39:53;1.77;;;1.10;;
12784;SDS011;6456;42.680;23.260;2023-04-04T08:42:20;0.87;;;0.87;;
12784;SDS011;6456;42.680;23.260;2023-04-04T08:44:48;0.80;;;0.80;;
12784;SDS011;6456;42.680;23.260;2023-04-04T08:47:19;4.70;;;1.37;;
12784;SDS011;6456;42.680;23.260;2023-04-04T08:49:48;1.03;;;0.90;;
12784;SDS011;6456;42.680;23.260;2023-04-04T08:52:19;1.10;;;1.00;;
12784;SDS011;6456;42.680;23.260;2023-04-04T08:54:50;1.13;;;0.87;;
12784;SDS011;6456;42.680;23.260;2023-04-04T08:57:17;0.90;;;0.90;;
12784;SDS011;6456;42.680;23.260;2023-04-04T08:59:44;0.70;;;0.70;;
12784;SDS011;6456;42.680;23.260;2023-04-04T09:02:16;1.80;;;0.80;;
12784;SDS011;6456;42.680;23.260;2023-04-04T09:04:49;1.23;;;1.10;;
12784;SDS011;6456;42.680;23.260;2023-04-04T09:07:20;0.63;;;0.63;;
12784;SDS011;6456;42.680;23.260;2023-04-04T09:09:47;0.57;;;0.57;;
12784;SDS011;6456;42.680;23.260;2023-04-04T09:12:16;0.90;;;0.90;;
12784;SDS011;6456;42.680;23.260;2023-04-04T09:14:44;0.70;;;0.70;;
12784;SDS011;6456;42.680;23.260;2023-04-04T09:17:12;1.93;;;0.70;;
12784;SDS011;6456;42.680;23.260;2023-04-04T09:19:41;1.07;;;1.03;;
12784;SDS011;6456;42.680;23.260;2023-04-04T09:22:08;1.00;;;1.00;;
12784;SDS011;6456;42.680;23.260;2023-04-04T09:24:39;0.80;;;0.60;;
12784;SDS011;6456;42.680;23.260;2023-04-04T09:27:07;0.60;;;0.60;;
12784;SDS011;6456;42.680;23.260;2023-04-04T09:29:36;0.97;;;0.90;;
12784;SDS011;6456;42.680;23.260;2023-04-04T09:32:03;1.00;;;1.00;;
12784;SDS011;6456;42.680;23.260;2023-04-04T09:34:32;1.00;;;1.00;;
12784;SDS011;6456;42.680;23.260;2023-04-04T09:36:59;0.80;;;0.80;;
12784;SDS011;6456;42.680;23.260;2023-04-04T09:39:28;1.20;;;1.10;;
12784;SDS011;6456;42.680;23.260;2023-04-04T09:41:59;0.90;;;0.90;;
12784;SDS011;6456;42.680;23.260;2023-04-04T09:44:26;1.00;;;1.00;;
12784;SDS011;6456;42.680;23.260;2023-04-04T09:47:05;0.70;;;0.70;;
12784;SDS011;6456;42.680;23.260;2023-04-04T09:49:48;0.80;;;0.80;;
12784;SDS011;6456;42.680;23.260;2023-04-04T09:52:16;1.00;;;1.00;;
12784;SDS011;6456;42.680;23.260;2023-04-04T09:54:53;0.93;;;0.93;;
12784;SDS011;6456;42.680;23.260;2023-04-04T09:57:22;1.50;;;1.10;;
12784;SDS011;6456;42.680;23.260;2023-04-04T09:59:54;0.90;;;0.90;;
12784;SDS011;6456;42.680;23.260;2023-04-04T10:02:23;1.30;;;1.20;;
12784;SDS011;6456;42.680;23.260;2023-04-04T10:04:52;1.07;;;1.07;;
12784;SDS011;6456;42.680;23.260;2023-04-04T10:07:21;1.03;;;1.00;;
12784;SDS011;6456;42.680;23.260;2023-04-04T10:09:50;0.97;;;0.93;;
12784;SDS011;6456;42.680;23.260;2023-04-04T10:12:20;1.13;;;1.03;;
12784;SDS011;6456;42.680;23.260;2023-04-04T10:14:49;1.43;;;1.30;;
12784;SDS011;6456;42.680;23.260;2023-04-04T10:17:23;1.27;;;1.10;;
12784;SDS011;6456;42.680;23.260;2023-04-04T10:19:54;0.70;;;0.63;;
12784;SDS011;6456;42.680;23.260;2023-04-04T10:22:25;0.97;;;0.97;;
12784;SDS011;6456;42.680;23.260;2023-04-04T10:25:00;1.43;;;1.33;;
12784;SDS011;6456;42.680;23.260;2023-04-04T10:27:31;1.20;;;1.20;;
12784;SDS011;6456;42.680;23.260;2023-04-04T10:29:59;1.10;;;1.10;;
12784;SDS011;6456;42.680;23.260;2023-04-04T10:32:32;0.90;;;0.90;;
12784;SDS011;6456;42.680;23.260;2023-04-04T10:35:09;0.90;;;0.90;;
12784;SDS011;6456;42.680;23.260;2023-04-04T10:37:39;0.70;;;0.70;;
12784;SDS011;6456;42.680;23.260;2023-04-04T10:40:10;4.43;;;1.80;;
12784;SDS011;6456;42.680;23.260;2023-04-04T10:42:42;2.20;;;1.30;;
12784;SDS011;6456;42.680;23.260;2023-04-04T10:45:16;1.03;;;1.03;;
12784;SDS011;6456;42.680;23.260;2023-04-04T10:47:45;1.37;;;1.27;;
12784;SDS011;6456;42.680;23.260;2023-04-04T10:50:16;1.10;;;1.10;;
12784;SDS011;6456;42.680;23.260;2023-04-04T10:52:44;1.10;;;1.10;;
12784;SDS011;6456;42.680;23.260;2023-04-04T10:55:12;2.07;;;0.97;;
12784;SDS011;6456;42.680;23.260;2023-04-04T10:57:40;1.27;;;1.10;;
12784;SDS011;6456;42.680;23.260;2023-04-04T11:00:09;1.30;;;1.20;;
12784;SDS011;6456;42.680;23.260;2023-04-04T11:02:52;1.10;;;1.10;;
12784;SDS011;6456;42.680;23.260;2023-04-04T11:05:24;1.67;;;1.30;;
12784;SDS011;6456;42.680;23.260;2023-04-04T11:07:54;2.07;;;1.70;;
12784;SDS011;6456;42.680;23.260;2023-04-04T11:10:28;1.50;;;1.27;;
12784;SDS011;6456;42.680;23.260;2023-04-04T11:12:56;1.33;;;1.33;;
12784;SDS011;6456;42.680;23.260;2023-04-04T11:15:43;1.70;;;1.60;;
12784;SDS011;6456;42.680;23.260;2023-04-04T11:18:13;1.23;;;1.20;;
12784;SDS011;6456;42.680;23.260;2023-04-04T11:20:42;1.30;;;1.30;;
12784;SDS011;6456;42.680;23.260;2023-04-04T11:23:15;3.70;;;1.30;;
12784;SDS011;6456;42.680;23.260;2023-04-04T11:25:49;1.27;;;1.20;;
12784;SDS011;6456;42.680;23.260;2023-04-04T11:28:24;1.60;;;1.50;;
12784;SDS011;6456;42.680;23.260;2023-04-04T11:33:54;1.90;;;1.80;;
12784;SDS011;6456;42.680;23.260;2023-04-04T11:39:29;1.50;;;1.40;;
12784;SDS011;6456;42.680;23.260;2023-04-04T11:41:59;1.70;;;1.60;;
12784;SDS011;6456;42.680;23.260;2023-04-04T11:44:29;3.50;;;3.20;;
12784;SDS011;6456;42.680;23.260;2023-04-04T11:47:00;2.73;;;2.53;;
12784;SDS011;6456;42.680;23.260;2023-04-04T11:49:32;1.60;;;1.50;;
12784;SDS011;6456;42.680;23.260;2023-04-04T11:52:02;1.50;;;1.40;;
12784;SDS011;6456;42.680;23.260;2023-04-04T11:54:33;1.60;;;1.50;;
12784;SDS011;6456;42.680;23.260;2023-04-04T11:57:00;1.33;;;1.30;;
12784;SDS011;6456;42.680;23.260;2023-04-04T11:59:28;1.30;;;1.30;;
12784;SDS011;6456;42.680;23.260;2023-04-04T12:01:55;2.70;;;2.50;;
12784;SDS011;6456;42.680;23.260;2023-04-04T12:04:23;1.87;;;1.77;;
12784;SDS011;6456;42.680;23.260;2023-04-04T12:06:53;1.90;;;1.80;;
12784;SDS011;6456;42.680;23.260;2023-04-04T12:09:26;1.80;;;1.70;;
12784;SDS011;6456;42.680;23.260;2023-04-04T12:11:56;1.63;;;1.53;;
12784;SDS011;6456;42.680;23.260;2023-04-04T12:14:27;1.80;;;1.70;;
12784;SDS011;6456;42.680;23.260;2023-04-04T12:16:57;3.03;;;2.30;;
12784;SDS011;6456;42.680;23.260;2023-04-04T12:19:36;2.43;;;2.23;;
12784;SDS011;6456;42.680;23.260;2023-04-04T12:22:19;2.30;;;2.10;;
12784;SDS011;6456;42.680;23.260;2023-04-04T12:24:46;2.30;;;2.20;;
12784;SDS011;6456;42.680;23.260;2023-04-04T12:27:15;2.23;;;2.13;;
12784;SDS011;6456;42.680;23.260;2023-04-04T12:29:54;3.90;;;2.43;;
12784;SDS011;6456;42.680;23.260;2023-04-04T12:32:22;2.60;;;2.40;;
12784;SDS011;6456;42.680;23.260;2023-04-04T12:35:09;2.50;;;2.30;;
12784;SDS011;6456;42.680;23.260;2023-04-04T12:37:56;3.10;;;2.80;;
12784;SDS011;6456;42.680;23.260;2023-04-04T12:40:28;2.80;;;2.60;;
12784;SDS011;6456;42.680;23.260;2023-04-04T12:42:58;2.20;;;2.10;;
12784;SDS011;6456;42.680;23.260;2023-04-04T12:45:29;2.80;;;2.60;;
12784;SDS011;6456;42.680;23.260;2023-04-04T12:47:57;2.70;;;2.50;;
12784;SDS011;6456;42.680;23.260;2023-04-04T12:50:28;2.80;;;2.30;;
12784;SDS011;6456;42.680;23.260;2023-04-04T12:53:02;2.70;;;2.50;;
12784;SDS011;6456;42.680;23.260;2023-04-04T12:55:46;2.67;;;2.47;;
12784;SDS011;6456;42.680;23.260;2023-04-04T12:58:15;2.43;;;2.23;;
12784;SDS011;6456;42.680;23.260;2023-04-04T13:00:45;2.63;;;2.43;;
12784;SDS011;6456;42.680;23.260;2023-04-04T13:03:14;2.47;;;2.27;;
12784;SDS011;6456;42.680;23.260;2023-04-04T13:05:46;2.47;;;2.27;;
12784;SDS011;6456;42.680;23.260;2023-04-04T13:08:15;2.93;;;2.73;;
12784;SDS011;6456;42.680;23.260;2023-04-04T13:10:59;2.60;;;2.40;;
12784;SDS011;6456;42.680;23.260;2023-04-04T13:13:35;2.30;;;2.20;;
12784;SDS011;6456;42.680;23.260;2023-04-04T13:16:05;3.17;;;2.67;;
12784;SDS011;6456;42.680;23.260;2023-04-04T13:18:36;2.37;;;2.27;;
12784;SDS011;6456;42.680;23.260;2023-04-04T13:21:06;3.00;;;2.80;;
12784;SDS011;6456;42.680;23.260;2023-04-04T13:23:39;2.53;;;2.43;;
12784;SDS011;6456;42.680;23.260;2023-04-04T13:26:07;2.83;;;2.63;;
12784;SDS011;6456;42.680;23.260;2023-04-04T13:28:35;3.10;;;2.90;;
12784;SDS011;6456;42.680;23.260;2023-04-04T13:31:05;3.10;;;2.90;;
12784;SDS011;6456;42.680;23.260;2023-04-04T13:33:35;3.00;;;2.80;;
12784;SDS011;6456;42.680;23.260;2023-04-04T13:36:05;2.93;;;2.73;;
12784;SDS011;6456;42.680;23.260;2023-04-04T13:38:35;3.20;;;3.00;;
12784;SDS011;6456;42.680;23.260;2023-04-04T13:41:04;3.57;;;3.27;;
12784;SDS011;6456;42.680;23.260;2023-04-04T13:43:38;3.10;;;2.90;;
12784;SDS011;6456;42.680;23.260;2023-04-04T13:46:14;3.60;;;3.30;;
12784;SDS011;6456;42.680;23.260;2023-04-04T13:48:46;3.70;;;3.40;;
12784;SDS011;6456;42.680;23.260;2023-04-04T13:51:20;3.43;;;3.13;;
12784;SDS011;6456;42.680;23.260;2023-04-04T13:53:52;3.77;;;3.37;;
12784;SDS011;6456;42.680;23.260;2023-04-04T13:56:22;3.73;;;3.43;;
12784;SDS011;6456;42.680;23.260;2023-04-04T13:58:52;3.93;;;3.63;;
12784;SDS011;6456;42.680;23.260;2023-04-04T14:01:20;4.27;;;3.87;;
12784;SDS011;6456;42.680;23.260;2023-04-04T14:03:49;4.00;;;3.70;;
12784;SDS011;6456;42.680;23.260;2023-04-04T14:06:19;3.90;;;3.60;;
12784;SDS011;6456;42.680;23.260;2023-04-04T14:08:49;3.83;;;3.60;;
12784;SDS011;6456;42.680;23.260;2023-04-04T14:11:21;3.33;;;3.03;;
12784;SDS011;6456;42.680;23.260;2023-04-04T14:13:55;3.63;;;3.33;;
12784;SDS011;6456;42.680;23.260;2023-04-04T14:16:22;4.63;;;3.73;;
12784;SDS011;6456;42.680;23.260;2023-04-04T14:18:52;3.40;;;3.20;;
12784;SDS011;6456;42.680;23.260;2023-04-04T14:21:23;3.57;;;3.27;;
12784;SDS011;6456;42.680;23.260;2023-04-04T14:23:52;4.30;;;3.90;;
12784;SDS011;6456;42.680;23.260;2023-04-04T14:26:27;3.63;;;3.33;;
12784;SDS011;6456;42.680;23.260;2023-04-04T14:29:05;4.03;;;3.73;;
12784;SDS011;6456;42.680;23.260;2023-04-04T14:31:35;3.60;;;3.30;;
12784;SDS011;6456;42.680;23.260;2023-04-04T14:34:03;3.63;;;3.33;;
12784;SDS011;6456;42.680;23.260;2023-04-04T14:36:30;4.03;;;3.73;;
12784;SDS011;6456;42.680;23.260;2023-04-04T14:39:03;4.00;;;3.70;;
12784;SDS011;6456;42.680;23.260;2023-04-04T14:41:43;4.53;;;4.13;;
12784;SDS011;6456;42.680;23.260;2023-04-04T14:44:12;4.23;;;3.83;;
12784;SDS011;6456;42.680;23.260;2023-04-04T14:46:41;3.90;;;3.50;;
12784;SDS011;6456;42.680;23.260;2023-04-04T14:49:13;4.70;;;4.30;;
12784;SDS011;6456;42.680;23.260;2023-04-04T14:51:43;4.63;;;4.23;;
12784;SDS011;6456;42.680;23.260;2023-04-04T14:54:10;5.43;;;4.97;;
12784;SDS011;6456;42.680;23.260;2023-04-04T14:56:38;4.40;;;3.97;;
12784;SDS011;6456;42.680;23.260;2023-04-04T14:59:19;4.90;;;4.40;;
12784;SDS011;6456;42.680;23.260;2023-04-04T15:01:46;4.30;;;3.90;;
12784;SDS011;6456;42.680;23.260;2023-04-04T15:04:19;4.53;;;4.13;;
12784;SDS011;6456;42.680;23.260;2023-04-04T15:06:46;3.90;;;3.60;;